Time;durP1;ratioP1;P1;durP2;ratioP2;P2;SDS_P1;SDS_P2;PMS_P1;PMS_P2;Temp;Humidity;BMP_temperature;BMP_pressure;BME280_temperature;BME280_humidity;BME280_pressure;Samples;Min_cycle;Max_cycle;Signal;HPM_P1;HPM_P2
2022/04/29 00:01:38;;;;;;;7.87;5.37;;;6.00;99.90;7.20;95012.00;;;;7392799;19;20176;-77
2022/04/29 00:04:12;;;;;;;7.00;5.07;;;6.10;99.90;7.00;95008.00;;;;7396915;19;20125;-77
2022/04/29 00:06:39;;;;;;;6.87;5.70;;;6.10;99.90;7.00;94992.00;;;;7393379;19;20212;-77
2022/04/29 00:09:07;;;;;;;6.97;5.70;;;6.10;99.90;7.00;95018.00;;;;7395118;19;20224;-78
2022/04/29 00:11:40;;;;;;;5.93;5.10;;;6.00;99.90;6.90;94996.00;;;;7395988;19;20595;-77
2022/04/29 00:14:08;;;;;;;6.70;5.00;;;6.00;99.90;6.90;94990.00;;;;7393124;19;20149;-77
2022/04/29 00:16:35;;;;;;;6.03;5.43;;;5.90;99.90;6.90;95000.00;;;;7396657;19;20152;-77
2022/04/29 00:19:09;;;;;;;6.80;5.30;;;5.90;99.90;6.90;94974.00;;;;7396464;19;20136;-77
2022/04/29 00:21:36;;;;;;;6.27;5.57;;;5.90;99.90;7.10;94975.00;;;;7391356;19;20136;-77
2022/04/29 00:24:04;;;;;;;5.53;5.03;;;6.00;99.90;7.10;94967.00;;;;7395592;19;20604;-77
2022/04/29 00:26:39;;;;;;;7.07;5.57;;;5.90;99.90;7.10;95004.00;;;;7396177;19;20177;-77
2022/04/29 00:29:07;;;;;;;8.50;6.37;;;6.00;99.90;7.10;94994.00;;;;7395106;19;20663;-78
2022/04/29 00:31:35;;;;;;;8.83;5.57;;;6.00;99.90;7.00;94996.00;;;;7390521;19;20148;-77
2022/04/29 00:34:12;;;;;;;8.07;5.77;;;6.00;99.90;7.00;95001.00;;;;7390932;19;20182;-78
2022/04/29 00:36:39;;;;;;;7.20;5.60;;;5.90;99.90;6.90;94996.00;;;;7393441;19;20145;-77
2022/04/29 00:39:06;;;;;;;6.87;5.10;;;5.90;99.90;6.90;94981.00;;;;7395491;19;20140;-77
2022/04/29 00:41:47;;;;;;;9.10;5.60;;;6.00;99.90;7.00;94984.00;;;;7391570;19;20125;-77
2022/04/29 00:44:14;;;;;;;6.13;5.07;;;5.90;99.90;6.80;94954.00;;;;7393427;19;20132;-77
2022/04/29 00:46:49;;;;;;;6.10;4.80;;;5.90;99.90;6.60;94980.00;;;;7394745;19;20146;-78
2022/04/29 00:49:18;;;;;;;8.73;4.93;;;5.90;1.00;6.60;94974.00;;;;7401278;19;20133;-78
2022/04/29 00:51:49;;;;;;;5.57;4.83;;;5.80;99.90;6.60;94979.00;;;;7394933;19;20607;-77
2022/04/29 00:54:30;;;;;;;6.40;4.33;;;5.80;1.00;6.60;94968.00;;;;7394930;19;20132;-77
2022/04/29 00:56:59;;;;;;;7.67;5.73;;;5.70;1.00;6.50;94979.00;;;;7401534;19;20145;-77
2022/04/29 01:00:10;;;;;;;6.97;4.80;;;5.70;1.00;6.50;94967.00;;;;7397073;19;20229;-77
2022/04/29 01:02:46;;;;;;;6.00;5.03;;;5.60;1.00;6.50;94950.00;;;;7397608;19;20176;-78
2022/04/29 01:05:25;;;;;;;7.43;5.60;;;5.60;1.00;6.60;94972.00;;;;7397111;19;20135;-78
2022/04/29 01:07:53;;;;;;;6.63;4.70;;;5.60;99.90;6.60;94951.00;;;;7397831;19;20117;-78
2022/04/29 01:10:22;;;;;;;6.60;5.23;;;5.70;99.90;6.60;94965.00;;;;7397315;19;20627;-78
2022/04/29 01:13:02;;;;;;;6.87;4.93;;;5.70;99.90;6.60;94975.00;;;;7399619;19;20160;-79
2022/04/29 01:15:31;;;;;;;5.87;5.23;;;5.80;1.00;6.70;94940.00;;;;7399486;19;20160;-79
2022/04/29 01:18:11;;;;;;;5.67;4.60;;;5.80;99.90;6.70;94958.00;;;;7400696;19;20171;-79
2022/04/29 01:20:39;;;;;;;7.77;4.73;;;5.80;99.90;6.50;94966.00;;;;7400600;19;20589;-79
2022/04/29 01:23:14;;;;;;;5.80;4.87;;;5.80;99.90;6.50;94937.00;;;;7399588;19;20606;-78
2022/04/29 01:25:42;;;;;;;5.53;4.90;;;5.70;99.90;6.40;94950.00;;;;7397313;19;20175;-79
2022/04/29 01:28:09;;;;;;;6.80;6.10;;;5.70;99.90;6.60;94937.00;;;;7399912;19;20602;-79
2022/04/29 01:30:44;;;;;;;7.63;5.73;;;5.70;99.90;6.60;94951.00;;;;7401526;19;20125;-81
2022/04/29 01:33:13;;;;;;;7.07;5.30;;;5.70;99.90;6.60;94937.00;;;;7399059;19;20152;-78
2022/04/29 01:35:40;;;;;;;7.67;5.73;;;5.70;99.90;6.70;94960.00;;;;7398192;19;20153;-78
2022/04/29 01:38:14;;;;;;;7.53;5.80;;;5.70;99.90;6.80;94940.00;;;;7399389;19;20148;-79
2022/04/29 01:40:42;;;;;;;5.97;5.27;;;5.70;99.90;6.80;94941.00;;;;7396287;19;20125;-79
2022/04/29 01:43:09;;;;;;;7.33;5.63;;;5.70;99.90;6.80;94921.00;;;;7400018;19;20619;-80
2022/04/29 01:45:42;;;;;;;6.47;5.30;;;5.80;99.90;6.80;94948.00;;;;7399538;19;20504;-79
2022/04/29 01:48:09;;;;;;;6.17;4.87;;;5.80;99.90;6.70;94932.00;;;;7397755;19;20129;-78
2022/04/29 01:50:36;;;;;;;9.17;5.30;;;5.80;99.90;6.50;94850.00;;;;7398291;19;20190;-79
2022/04/29 01:53:10;;;;;;;9.37;6.47;;;5.70;99.90;6.50;94968.00;;;;7396403;19;20148;-78
2022/04/29 01:55:37;;;;;;;7.43;5.23;;;5.70;99.90;6.50;94940.00;;;;7398380;19;20148;-79
2022/04/29 01:58:05;;;;;;;6.27;4.50;;;5.70;99.90;6.50;94950.00;;;;7394263;19;20149;-79
2022/04/29 02:00:39;;;;;;;9.83;5.23;;;5.60;99.90;6.30;94915.00;;;;7394916;19;20157;-79
2022/04/29 02:03:13;;;;;;;9.27;6.13;;;5.60;99.90;6.40;94929.00;;;;7395084;19;20165;-81
2022/04/29 02:05:47;;;;;;;10.37;5.67;;;5.60;99.90;6.60;94922.00;;;;7400477;19;20145;-79
2022/04/29 02:08:14;;;;;;;7.17;5.47;;;5.60;99.90;6.60;94916.00;;;;7400008;19;20145;-80
2022/04/29 02:10:44;;;;;;;6.37;5.47;;;5.60;99.90;6.70;94945.00;;;;7396725;19;20192;-79
2022/04/29 02:13:17;;;;;;;9.27;6.30;;;5.70;99.90;6.80;94925.00;;;;7397685;19;20504;-79
2022/04/29 02:15:46;;;;;;;8.70;6.67;;;5.70;99.90;6.70;94951.00;;;;7396722;19;20148;-79
2022/04/29 02:18:13;;;;;;;7.30;5.70;;;5.70;99.90;6.60;94926.00;;;;7396790;19;20145;-78
2022/04/29 02:20:49;;;;;;;7.20;5.03;;;5.70;99.90;6.50;94906.00;;;;7395921;19;20141;-79
2022/04/29 02:23:16;;;;;;;6.80;5.67;;;5.70;99.90;6.50;94927.00;;;;7399929;19;20458;-80
2022/04/29 02:25:44;;;;;;;8.40;5.63;;;5.70;99.90;6.40;94916.00;;;;7393623;19;20148;-80
2022/04/29 02:28:17;;;;;;;7.50;5.30;;;5.60;99.90;6.30;94901.00;;;;7396184;19;20144;-80
2022/04/29 02:30:44;;;;;;;8.27;6.07;;;5.50;99.90;6.50;94887.00;;;;7399497;19;20679;-80
2022/04/29 02:33:11;;;;;;;8.07;6.10;;;5.50;99.90;6.60;94882.00;;;;7396605;19;20143;-80
2022/04/29 02:35:45;;;;;;;5.90;5.20;;;5.60;99.90;6.70;94888.00;;;;7394980;19;20632;-79
2022/04/29 02:38:12;;;;;;;7.23;5.13;;;5.60;99.90;6.40;94892.00;;;;7398597;19;20160;-80
2022/04/29 02:40:39;;;;;;;7.63;6.00;;;5.60;99.90;6.40;94891.00;;;;7395187;19;20141;-79
2022/04/29 02:43:13;;;;;;;8.47;6.03;;;5.60;99.90;6.50;94882.00;;;;7397751;19;20135;-79
2022/04/29 02:45:40;;;;;;;7.93;5.27;;;5.60;99.90;6.50;94911.00;;;;7395986;19;20580;-80
2022/04/29 02:48:08;;;;;;;9.33;6.20;;;5.60;99.90;6.50;94898.00;;;;7394187;19;20141;-80
2022/04/29 02:50:41;;;;;;;7.97;6.67;;;5.70;99.90;6.60;94912.00;;;;7398009;19;20157;-79
2022/04/29 02:53:09;;;;;;;9.47;7.50;;;5.60;99.90;6.90;94893.00;;;;7394873;19;20161;-79
2022/04/29 02:55:36;;;;;;;9.77;6.60;;;5.70;99.90;7.00;94904.00;;;;7398674;19;20164;-78
2022/04/29 02:58:09;;;;;;;10.67;6.33;;;5.90;99.90;7.00;94886.00;;;;7391332;19;20608;-78
2022/04/29 03:00:36;;;;;;;11.77;7.47;;;5.90;99.90;7.00;94877.00;;;;7393102;19;20162;-79
2022/04/29 03:03:04;;;;;;;10.47;6.80;;;6.00;99.90;7.30;94902.00;;;;7393018;19;20644;-79
2022/04/29 03:05:39;;;;;;;10.33;6.93;;;6.20;64.70;7.30;94902.00;;;;7396917;19;20153;-79
2022/04/29 03:08:07;;;;;;;9.47;7.60;;;6.20;69.50;7.50;94875.00;;;;7393769;19;20144;-78
2022/04/29 03:10:34;;;;;;;9.10;7.10;;;6.40;10.00;7.70;94882.00;;;;7395200;19;20437;-78
2022/04/29 03:13:08;;;;;;;8.70;6.90;;;6.60;1.00;7.80;94890.00;;;;7393436;19;20146;-78
2022/04/29 03:15:36;;;;;;;9.23;6.90;;;6.60;1.00;7.50;94880.00;;;;7393152;19;20148;-78
2022/04/29 03:18:19;;;;;;;9.47;7.00;;;6.60;1.00;7.50;94858.00;;;;7396920;19;20156;-78
2022/04/29 03:20:56;;;;;;;10.93;8.23;;;6.60;1.00;7.40;94867.00;;;;7393700;19;20757;-78
2022/04/29 03:23:25;;;;;;;9.73;7.23;;;6.50;1.00;7.30;94848.00;;;;7393504;19;20157;-79
2022/04/29 03:25:52;;;;;;;8.87;6.70;;;6.40;1.00;7.20;94881.00;;;;7393160;19;20584;-79
2022/04/29 03:28:27;;;;;;;7.50;6.60;;;6.30;33.90;6.90;94893.00;;;;7395958;19;20504;-79
2022/04/29 03:30:54;;;;;;;8.13;6.80;;;6.20;70.90;6.80;94865.00;;;;7394242;19;20163;-80
2022/04/29 03:33:21;;;;;;;9.20;6.93;;;6.10;99.90;6.80;94868.00;;;;7393339;19;20506;-78
2022/04/29 03:35:55;;;;;;;8.93;6.97;;;6.00;99.90;6.80;94882.00;;;;7393897;19;20152;-79
2022/04/29 03:38:24;;;;;;;10.73;6.47;;;5.90;99.90;6.80;94885.00;;;;7392443;19;20149;-80
2022/04/29 03:40:54;;;;;;;7.40;6.60;;;5.90;99.90;6.80;94862.00;;;;7396507;19;20153;-79
2022/04/29 03:43:31;;;;;;;11.73;6.63;;;5.90;99.90;6.70;94786.00;;;;7394973;19;20632;-78
2022/04/29 03:45:59;;;;;;;11.97;6.97;;;5.80;99.90;6.80;94870.00;;;;7390831;19;20152;-78
2022/04/29 03:48:27;;;;;;;8.97;7.20;;;5.80;99.90;6.80;94862.00;;;;7392943;19;20137;-79
2022/04/29 03:51:03;;;;;;;11.07;6.97;;;5.80;99.90;6.80;94844.00;;;;7396421;19;20144;-80
2022/04/29 03:53:30;;;;;;;10.97;6.90;;;5.80;99.90;6.70;94871.00;;;;7392425;19;20482;-78
2022/04/29 03:55:57;;;;;;;9.53;7.33;;;5.70;99.90;6.60;94853.00;;;;7396483;19;20132;-77
2022/04/29 03:58:31;;;;;;;8.57;7.30;;;5.70;99.90;6.70;94846.00;;;;7393889;19;20470;-77
2022/04/29 04:00:58;;;;;;;9.23;6.23;;;5.60;99.90;6.50;94887.00;;;;7392926;19;20128;-78
2022/04/29 04:03:26;;;;;;;8.77;5.80;;;5.60;99.90;6.40;94876.00;;;;7391989;19;20140;-77
2022/04/29 04:08:46;;;;;;;9.20;6.37;;;5.60;99.90;6.20;94880.00;;;;7393858;19;20120;-78
2022/04/29 04:11:19;;;;;;;10.47;6.37;;;5.50;99.90;6.30;94880.00;;;;7394718;19;20596;-78
2022/04/29 04:13:46;;;;;;;7.90;6.10;;;5.50;99.90;6.10;94896.00;;;;7394295;19;20148;-78
2022/04/29 04:16:13;;;;;;;10.63;8.60;;;5.40;99.90;6.10;94883.00;;;;7396064;19;20161;-78
2022/04/29 04:18:47;;;;;;;10.70;7.07;;;5.30;99.90;6.10;94872.00;;;;7395887;19;20141;-78
2022/04/29 04:21:14;;;;;;;9.20;7.27;;;5.30;99.90;6.20;94902.00;;;;7395580;19;20211;-77
2022/04/29 04:23:41;;;;;;;7.83;6.40;;;5.30;99.90;6.10;94889.00;;;;7393369;19;20149;-77
2022/04/29 04:26:15;;;;;;;10.77;7.20;;;5.20;99.90;6.20;94864.00;;;;7395936;19;20153;-77
2022/04/29 04:28:43;;;;;;;13.87;8.00;;;5.30;99.90;6.60;94895.00;;;;7390900;19;20145;-76
2022/04/29 04:31:10;;;;;;;9.47;7.17;;;5.40;99.90;6.60;94889.00;;;;7393383;19;20129;-77
2022/04/29 04:33:43;;;;;;;10.97;8.00;;;5.50;99.90;6.70;94866.00;;;;7396629;19;20589;-78
2022/04/29 04:36:10;;;;;;;10.40;8.00;;;5.60;99.90;6.90;94878.00;;;;7391500;19;20117;-77
2022/04/29 04:38:37;;;;;;;10.23;7.87;;;5.70;99.90;7.00;94890.00;;;;7395696;19;20193;-78
2022/04/29 04:41:13;;;;;;;11.47;7.67;;;5.70;99.90;7.00;94888.00;;;;7395175;19;20149;-77
2022/04/29 04:43:40;;;;;;;11.67;7.90;;;5.80;99.90;7.20;94855.00;;;;7392964;19;20606;-77
2022/04/29 04:46:07;;;;;;;12.87;7.67;;;5.90;60.70;7.30;94868.00;;;;7396233;19;20129;-77
2022/04/29 04:48:42;;;;;;;10.50;7.63;;;6.00;85.50;7.30;94866.00;;;;7391359;19;20466;-77
2022/04/29 04:51:09;;;;;;;9.17;7.30;;;6.10;99.90;7.40;94891.00;;;;7387158;19;20632;-77
2022/04/29 04:53:36;;;;;;;10.60;7.40;;;6.20;57.90;7.40;94859.00;;;;7388309;19;20503;-77
2022/04/29 04:56:09;;;;;;;9.77;7.67;;;6.30;88.50;7.50;94882.00;;;;7393897;19;20869;-76
2022/04/29 04:58:37;;;;;;;12.13;8.33;;;6.40;34.80;7.60;94858.00;;;;7392073;19;20604;-76
2022/04/29 05:01:04;;;;;;;14.90;7.83;;;6.50;1.00;7.70;94885.00;;;;7393811;19;20168;-76
2022/04/29 05:03:45;;;;;;;13.80;7.20;;;6.60;14.80;7.80;94905.00;;;;7392017;19;20647;-78
2022/04/29 05:06:21;;;;;;;8.90;6.63;;;6.60;1.00;7.80;94882.00;;;;7399425;19;20148;-77
2022/04/29 05:08:55;;;;;;;7.60;6.47;;;6.70;22.40;7.80;94884.00;;;;7396779;19;20472;-77
2022/04/29 05:11:22;;;;;;;9.40;7.20;;;6.80;30.10;8.00;94897.00;;;;7396172;19;20169;-78
2022/04/29 05:14:10;;;;;;;10.03;7.27;;;6.90;1.00;8.30;94899.00;;;;7395749;19;20137;-77
2022/04/29 05:16:44;;;;;;;10.80;7.30;;;7.00;1.00;8.60;94909.00;;;;7398253;19;20204;-77
2022/04/29 05:19:11;;;;;;;9.67;7.37;;;7.20;1.00;9.00;94901.00;;;;7396834;19;20164;-77
2022/04/29 05:21:39;;;;;;;10.20;7.63;;;7.40;1.00;9.30;94882.00;;;;7396108;19;20152;-78
2022/04/29 05:24:13;;;;;;;11.83;7.80;;;7.70;1.00;9.50;94905.00;;;;7393825;19;20172;-78
2022/04/29 05:26:42;;;;;;;10.47;8.40;;;8.00;1.00;9.70;94911.00;;;;7393544;19;20137;-77
2022/04/29 05:29:10;;;;;;;11.47;7.87;;;8.20;1.00;9.90;94902.00;;;;7394683;19;20232;-79
2022/04/29 05:31:44;;;;;;;9.67;7.50;;;8.40;1.00;9.80;94901.00;;;;7394900;19;20155;-78
2022/04/29 05:34:12;;;;;;;10.40;7.07;;;8.60;1.00;9.90;94903.00;;;;7393543;19;20185;-78
2022/04/29 05:36:40;;;;;;;10.73;7.57;;;8.70;1.00;10.00;94877.00;;;;7404425;19;20141;-79
2022/04/29 05:42:15;;;;;;;13.97;8.13;;;8.90;1.00;10.50;94909.00;;;;7404797;19;20133;-78
2022/04/29 05:44:50;;;;;;;10.98;8.13;;;9.00;1.00;10.60;94908.00;;;;7401529;19;20133;-78
2022/04/29 05:47:19;;;;;;;10.95;8.20;;;9.20;1.00;10.70;94924.00;;;;7405913;19;20152;-78
2022/04/29 05:49:47;;;;;;;11.75;7.50;;;9.30;1.00;10.90;94897.00;;;;7404159;19;20200;-78
2022/04/29 05:52:21;;;;;;;10.70;7.68;;;9.50;1.00;11.40;94893.00;;;;7401680;19;20170;-78
2022/04/29 05:54:49;;;;;;;12.48;7.85;;;9.70;1.00;11.50;94920.00;;;;7391805;19;20152;-80
2022/04/29 05:57:17;;;;;;;10.23;8.10;;;9.90;1.00;12.00;94902.00;;;;7403727;19;20149;-78
2022/04/29 05:59:51;;;;;;;11.40;8.02;;;10.20;1.00;12.50;94902.00;;;;7402308;19;20144;-79
2022/04/29 06:02:35;;;;;;;10.05;7.13;;;10.50;1.00;13.00;94930.00;;;;7401289;19;20190;-78
2022/04/29 06:05:10;;;;;;;9.63;7.20;;;10.90;1.00;13.40;94883.00;;;;7400118;19;20125;-80
2022/04/29 06:07:38;;;;;;;10.00;7.15;;;11.30;1.00;13.80;94933.00;;;;7402106;19;20149;-77
2022/04/29 06:10:15;;;;;;;8.85;6.60;;;11.70;1.00;13.80;94904.00;;;;7397781;19;20176;-79
2022/04/29 06:12:55;;;;;;;11.13;6.50;;;11.90;1.00;13.70;94911.00;;;;7399285;19;20152;-78
2022/04/29 06:15:34;;;;;;;11.80;6.18;;;11.90;1.00;13.60;94920.00;;;;7398188;19;20174;-79
2022/04/29 06:18:15;;;;;;;7.55;6.57;;;11.90;1.00;13.60;94913.00;;;;7398916;19;20145;-78
2022/04/29 06:21:07;;;;;;;7.97;6.18;;;12.00;1.00;13.50;94951.00;;;;7394294;19;20152;-78
2022/04/29 06:24:15;;;;;;;8.65;6.53;;;12.10;1.00;13.50;94953.00;;;;7398879;19;20139;-79
2022/04/29 06:26:49;;;;;;;7.90;5.57;;;12.10;1.00;13.60;94939.00;;;;7397345;19;20355;-76
2022/04/29 06:30:02;;;;;;;7.75;6.13;;;12.10;1.00;13.60;94741.00;;;;7394919;19;20157;-77
2022/04/29 06:32:42;;;;;;;6.97;5.80;;;12.20;1.00;14.00;94704.00;;;;7398102;19;20161;-78
2022/04/29 06:35:51;;;;;;;6.45;5.63;;;12.40;1.00;14.10;94949.00;;;;7396587;19;20152;-75
2022/04/29 06:38:20;;;;;;;7.97;6.00;;;12.50;1.00;14.00;94774.00;;;;7394208;19;20167;-75
2022/04/29 06:41:20;;;;;;;7.20;6.00;;;12.50;1.00;14.10;94932.00;;;;7393167;19;20608;-76
2022/04/29 06:44:17;;;;;;;6.40;5.18;;;12.60;1.00;13.90;94864.00;;;;7395579;19;20171;-75
2022/04/29 06:46:51;;;;;;;8.05;6.18;;;12.60;1.00;14.40;94932.00;;;;7397802;19;20156;-77
2022/04/29 06:49:18;;;;;;;6.35;5.13;;;12.60;1.00;14.40;94919.00;;;;7399085;19;20511;-75
2022/04/29 06:51:46;;;;;;;7.93;5.93;;;12.70;1.00;14.70;94934.00;;;;7397631;19;20176;-75
2022/04/29 06:54:21;;;;;;;10.32;5.85;;;12.90;1.00;15.20;94918.00;;;;7394546;19;20139;-76
2022/04/29 06:56:52;;;;;;;7.53;6.25;;;13.20;1.00;15.40;94941.00;;;;7397429;19;20201;-77
2022/04/29 06:59:50;;;;;;;6.85;5.68;;;13.40;1.00;14.90;94891.00;;;;7402250;19;20985;-75
2022/04/29 07:02:34;;;;;;;8.00;6.25;;;13.40;99.90;15.30;94923.00;;;;7408731;19;20144;-77
2022/04/29 07:05:31;;;;;;;7.85;6.13;;;13.50;99.90;14.80;94932.00;;;;7405807;19;20148;-76
2022/04/29 07:08:41;;;;;;;7.07;5.97;;;13.40;99.90;15.10;94722.00;;;;7406784;19;20145;-76
2022/04/29 07:11:21;;;;;;;6.63;5.93;;;13.30;99.90;15.10;94750.00;;;;7394053;19;20188;-76
2022/04/29 07:13:51;;;;;;;9.20;6.35;;;13.50;1.00;15.40;94843.00;;;;7404127;19;20156;-76
2022/04/29 07:16:37;;;;;;;6.80;6.00;;;13.60;99.90;15.80;94915.00;;;;7399878;19;20527;-76
2022/04/29 07:19:09;;;;;;;7.88;7.00;;;13.80;99.90;16.50;94881.00;;;;7398796;19;20478;-75
2022/04/29 07:21:53;;;;;;;10.30;7.03;;;14.00;1.00;17.30;94838.00;;;;7399767;19;20252;-74
2022/04/29 07:24:51;;;;;;;6.75;5.95;;;14.40;99.90;18.10;94883.00;;;;7398412;19;20229;-75
2022/04/29 07:27:29;;;;;;;7.15;6.40;;;14.80;99.90;18.70;94894.00;;;;7397896;19;20182;-75
2022/04/29 07:30:10;;;;;;;11.20;6.07;;;15.10;99.90;18.30;94920.00;;;;7398416;19;20500;-75
2022/04/29 07:33:07;;;;;;;10.95;6.10;;;15.40;99.90;17.70;94883.00;;;;7399619;19;20243;-74
2022/04/29 07:41:49;;;;;;;6.88;5.80;;;15.00;99.90;16.10;94889.00;;;;7398493;19;20152;-75
2022/04/29 07:44:28;;;;;;;7.35;5.15;;;14.70;99.90;15.90;94895.00;;;;7398396;19;20162;-74
2022/04/29 07:46:59;;;;;;;6.43;5.22;;;14.30;99.90;15.30;94903.00;;;;7394626;19;20169;-74
2022/04/29 07:49:47;;;;;;;5.88;5.05;;;14.20;99.90;15.60;94911.00;;;;7399063;19;20133;-74
2022/04/29 07:52:21;;;;;;;6.85;5.10;;;14.20;99.90;16.20;94913.00;;;;7398390;19;20133;-75
2022/04/29 07:55:03;;;;;;;7.57;4.80;;;14.30;99.90;17.00;94909.00;;;;7398386;19;20168;-74
2022/04/29 07:57:42;;;;;;;8.20;5.30;;;14.50;99.90;16.90;94926.00;;;;7395832;19;20157;-75
2022/04/29 08:04:01;;;;;;;7.50;4.38;;;14.80;99.90;17.10;94931.00;;;;7393254;19;20314;-74
2022/04/29 08:06:42;;;;;;;5.60;4.60;;;14.90;99.90;17.60;94916.00;;;;7393661;19;20137;-76
2022/04/29 08:09:29;;;;;;;5.78;4.50;;;15.10;99.90;18.60;94936.00;;;;7393826;19;20527;-75
2022/04/29 08:12:07;;;;;;;6.93;4.80;;;15.60;99.90;18.40;94911.00;;;;7400181;19;20192;-76
2022/04/29 08:14:35;;;;;;;10.77;4.90;;;16.00;99.90;18.70;94903.00;;;;7396928;19;20140;-75
2022/04/29 08:17:19;;;;;;;6.68;4.95;;;;;19.80;94916.00;;;;7397358;19;20155;-74
2022/04/29 08:19:54;;;;;;;6.80;5.40;;;;;20.40;94920.00;;;;7395631;19;20144;-74
2022/04/29 08:22:23;;;;;;;6.60;5.35;;;;;20.40;94917.00;;;;7397275;19;20141;-75
2022/04/29 08:24:51;;;;;;;6.85;5.13;;;;;20.90;94907.00;;;;7396180;19;20180;-74
2022/04/29 08:27:28;;;;;;;6.82;5.75;;;;;20.70;94909.00;;;;7397199;19;20722;-74
2022/04/29 08:29:59;;;;;;;6.15;5.50;;;;;21.70;94906.00;;;;7396865;19;20148;-75
2022/04/29 08:32:41;;;;;;;6.53;5.35;;;;;22.10;94910.00;;;;7394852;19;20204;-75
2022/04/29 08:35:10;;;;;;;9.25;5.72;;;;;21.60;94917.00;;;;7395195;19;20128;-76
2022/04/29 08:37:45;;;;;;;6.50;5.80;;;;;21.20;94918.00;;;;7398170;19;20164;-75
2022/04/29 08:40:13;;;;;;;6.72;5.45;;;;;21.00;94919.00;;;;7395597;19;20169;-75
2022/04/29 08:42:42;;;;;;;6.93;5.32;;;;;20.00;94923.00;;;;7395403;19;20156;-72
2022/04/29 08:45:18;;;;;;;7.30;5.53;;;;;20.40;94919.00;;;;7395383;19;20534;-75
2022/04/29 08:47:47;;;;;;;6.15;5.43;;;;;19.60;94914.00;;;;7396934;19;20150;-74
2022/04/29 08:50:18;;;;;;;6.35;5.25;;;;;19.00;94923.00;;;;7393540;19;20496;-73
2022/04/29 08:52:55;;;;;;;6.40;5.32;;;;;19.20;94926.00;;;;7397074;19;20465;-74
2022/04/29 08:58:52;;;;;;;7.47;5.40;;;;;20.10;94928.00;;;;7400089;19;20492;-75
2022/04/29 09:01:28;;;;;;;7.68;5.88;;;;;19.30;94929.00;;;;7399040;19;20160;-73
2022/04/29 09:04:09;;;;;;;7.05;5.28;;;17.10;99.90;18.30;94908.00;;;;7393435;19;20196;-75
2022/04/29 09:06:51;;;;;;;9.68;4.90;;;17.00;99.90;17.50;94914.00;;;;7395068;19;20153;-74
2022/04/29 09:09:25;;;;;;;6.72;5.38;;;16.50;99.90;16.80;94916.00;;;;7403560;19;20141;-75
2022/04/29 09:12:17;;;;;;;7.95;5.30;;;15.90;99.90;17.00;94932.00;;;;7404111;19;20498;-74
2022/04/29 09:15:14;;;;;;;8.93;5.05;;;15.70;99.90;17.10;94880.00;;;;7402222;19;20494;-75
2022/04/29 09:17:50;;;;;;;5.03;4.53;;;15.80;99.90;17.00;94905.00;;;;7404212;19;20140;-74
2022/04/29 09:20:25;;;;;;;6.38;4.65;;;15.80;99.90;17.50;94853.00;;;;7402942;19;20278;-75
2022/04/29 09:22:52;;;;;;;6.97;4.75;;;15.80;99.90;17.90;94882.00;;;;7403439;19;20659;-75
2022/04/29 09:25:21;;;;;;;5.63;4.28;;;16.00;99.90;17.60;94878.00;;;;7403843;19;20159;-74
2022/04/29 09:28:02;;;;;;;5.60;4.40;;;16.20;99.90;18.00;94887.00;;;;7403657;19;20144;-74
2022/04/29 09:30:41;;;;;;;7.40;4.75;;;16.20;99.90;18.20;94904.00;;;;7402142;19;20153;-76
2022/04/29 09:33:23;;;;;;;7.57;4.88;;;16.40;99.90;18.80;94904.00;;;;7402518;19;20176;-74
2022/04/29 09:35:54;;;;;;;7.57;4.40;;;16.80;99.90;18.50;94878.00;;;;7399652;19;20156;-74
2022/04/29 09:41:23;;;;;;;5.40;3.83;;;17.10;99.90;18.60;94873.00;;;;7403459;19;20219;-74
2022/04/29 09:43:57;;;;;;;4.93;3.95;;;17.20;99.90;19.00;94875.00;;;;7404026;19;20600;-73
2022/04/29 09:46:25;;;;;;;4.43;3.80;;;17.20;99.90;19.00;94867.00;;;;7402450;19;20604;-74
2022/04/29 09:48:59;;;;;;;5.03;3.90;;;17.20;99.90;19.60;94885.00;;;;7396750;19;20159;-74
2022/04/29 09:51:51;;;;;;;5.97;4.30;;;17.60;99.90;20.80;94880.00;;;;7404576;19;20607;-73
2022/04/29 09:54:27;;;;;;;6.93;4.32;;;18.40;99.90;21.30;94856.00;;;;7402348;19;20197;-75
2022/04/29 09:57:17;;;;;;;5.57;4.20;;;19.00;99.90;21.90;94869.00;;;;7401464;19;20141;-75
2022/04/29 10:00:51;;;;;;;4.60;3.72;;;19.30;99.90;22.00;94870.00;;;;7402560;19;20137;-74
2022/04/29 10:03:35;;;;;;;5.13;4.40;;;19.70;99.90;21.80;94863.00;;;;7393770;19;20661;-75
2022/04/29 10:06:51;;;;;;;6.57;4.55;;;19.50;99.90;21.30;94841.00;;;;7396753;19;20599;-74
2022/04/29 10:09:38;;;;;;;7.10;4.55;;;19.60;99.90;22.00;94832.00;;;;7398888;19;20168;-75
2022/04/29 10:12:21;;;;;;;6.68;4.22;;;19.80;99.90;23.40;94831.00;;;;7398561;19;20172;-75
2022/04/29 10:15:35;;;;;;;5.05;4.55;;;20.50;99.90;23.00;94831.00;;;;7401560;19;20152;-75
2022/04/29 10:21:37;;;;;;;7.10;4.82;;;20.50;99.90;21.40;94831.00;;;;7401716;19;20166;-75
2022/04/29 10:24:05;;;;;;;4.82;4.32;;;20.10;99.90;21.50;94822.00;;;;7399914;19;20216;-74
2022/04/29 10:26:40;;;;;;;6.75;4.55;;;20.30;99.90;21.00;94831.00;;;;7399682;19;20212;-76
2022/04/29 10:29:08;;;;;;;5.00;4.32;;;19.90;99.90;21.30;94875.00;;;;7394732;19;20145;-76
2022/04/29 10:31:43;;;;;;;6.47;4.30;;;19.60;99.90;20.80;94869.00;;;;7398134;19;20145;-76
2022/04/29 10:34:29;;;;;;;6.57;4.45;;;19.60;99.90;20.60;94870.00;;;;7399824;19;20132;-74
2022/04/29 10:36:59;;;;;;;7.97;4.75;;;19.40;99.90;21.20;94856.00;;;;7398642;19;20447;-76
2022/04/29 10:39:33;;;;;;;4.50;3.92;;;19.40;99.90;21.30;94848.00;;;;7403843;19;20164;-75
2022/04/29 10:42:08;;;;;;;4.35;3.95;;;19.70;99.90;20.90;94869.00;;;;7406865;19;20214;-74
2022/04/29 10:45:02;;;;;;;6.43;3.78;;;19.70;99.90;20.50;94881.00;;;;7401934;19;20136;-75
2022/04/29 10:47:38;;;;;;;4.72;3.80;;;19.50;99.90;20.40;94840.00;;;;7400567;19;20260;-73
2022/04/29 10:50:30;;;;;;;4.88;4.35;;;19.40;99.90;20.80;94870.00;;;;7399312;19;20149;-73
2022/04/29 10:53:06;;;;;;;8.65;3.63;;;19.30;99.90;20.90;94872.00;;;;7402975;19;20146;-75
2022/04/29 10:55:40;;;;;;;4.07;3.60;;;19.50;99.90;20.90;94856.00;;;;7399872;19;20176;-75
2022/04/29 10:58:29;;;;;;;4.20;3.47;;;19.60;99.90;19.90;94841.00;;;;7398314;19;20157;-76
2022/04/29 11:01:33;;;;;;;7.82;4.30;;;19.00;99.90;19.80;94850.00;;;;7398641;19;20183;-75
2022/04/29 11:04:31;;;;;;;4.57;4.05;;;18.60;99.90;20.00;94864.00;;;;7396085;19;20176;-74
2022/04/29 11:11:06;;;;;;;6.47;3.97;;;18.70;99.90;20.30;94860.00;;;;7398346;19;20184;-74
2022/04/29 11:13:57;;;;;;;7.50;4.00;;;18.90;99.90;20.70;94825.00;;;;7398080;19;20179;-74
2022/04/29 11:16:25;;;;;;;7.13;4.47;;;18.90;99.90;20.50;94858.00;;;;7396064;19;20549;-74
2022/04/29 11:19:26;;;;;;;7.45;4.22;;;19.10;99.90;20.90;94852.00;;;;7400664;19;20133;-75
2022/04/29 11:25:00;;;;;;;5.90;4.53;;;19.80;99.90;21.20;94845.00;;;;7396084;19;20153;-76
2022/04/29 11:27:37;;;;;;;5.68;4.65;;;19.90;99.90;20.90;94843.00;;;;7399295;19;20608;-75
2022/04/29 11:30:14;;;;;;;6.28;4.95;;;19.60;99.90;21.20;94834.00;;;;7397061;19;20598;-74
2022/04/29 11:32:43;;;;;;;5.60;4.13;;;19.40;99.90;21.30;94847.00;;;;7396011;19;20157;-75
2022/04/29 11:35:10;;;;;;;5.15;4.65;;;19.70;99.90;20.90;94836.00;;;;7397618;19;20164;-74
2022/04/29 11:37:48;;;;;;;6.43;5.28;;;19.60;99.90;21.00;94837.00;;;;7397126;19;20132;-74
2022/04/29 11:40:15;;;;;;;6.72;4.53;;;19.60;99.90;21.90;94810.00;;;;7393097;19;20200;-75
2022/04/29 11:42:50;;;;;;;6.75;4.53;;;19.60;99.90;22.80;94824.00;;;;7394195;19;20180;-75
2022/04/29 11:45:25;;;;;;;5.60;5.10;;;20.30;99.90;24.40;94804.00;;;;7395700;19;20710;-75
2022/04/29 11:48:06;;;;;;;6.07;4.65;;;21.20;99.90;25.40;94813.00;;;;7398677;19;20520;-75
2022/04/29 11:50:40;;;;;;;5.35;4.45;;;22.40;99.90;25.80;94797.00;;;;7398822;19;20192;-75
2022/04/29 11:53:10;;;;;;;5.47;4.47;;;23.50;99.90;25.80;94817.00;;;;7398092;19;20612;-74
2022/04/29 11:55:38;;;;;;;5.05;4.55;;;23.80;99.90;23.50;94806.00;;;;7389658;19;20532;-76
2022/04/29 11:58:40;;;;;;;5.70;4.28;;;22.90;99.90;23.60;94817.00;;;;7395458;19;20161;-75
2022/04/29 12:01:30;;;;;;;4.72;4.32;;;22.90;99.90;22.90;94633.00;;;;7399788;19;20145;-74
2022/04/29 12:04:20;;;;;;;7.03;4.28;;;22.60;99.90;22.60;94806.00;;;;7394885;19;20168;-74
2022/04/29 12:07:32;;;;;;;5.45;4.15;;;21.90;99.90;23.10;94768.00;;;;7390093;19;20470;-76
2022/04/29 12:10:29;;;;;;;5.63;4.60;;;21.70;99.90;23.70;94811.00;;;;7395672;19;20181;-73
2022/04/29 12:13:05;;;;;;;5.68;4.65;;;22.00;99.90;23.60;94776.00;;;;7393744;19;20125;-74
2022/04/29 12:15:42;;;;;;;4.78;3.83;;;21.80;99.90;23.10;94811.00;;;;7395898;19;20163;-73
2022/04/29 12:18:14;;;;;;;6.97;4.40;;;22.10;99.90;22.30;94804.00;;;;7394251;19;20133;-74